createdAt,value
2022-10-22T00:06:44.995Z,100789.38
2022-10-22T00:16:49.116Z,100781.69
2022-10-22T00:26:52.152Z,100782.63
2022-10-22T00:36:56.636Z,100786.19
2022-10-22T00:46:59.368Z,100797.28
2022-10-22T00:57:03.513Z,100830.81
2022-10-22T01:07:06.328Z,100821.28
2022-10-22T01:17:13.888Z,100858.28
2022-10-22T01:27:21.973Z,100908.22
2022-10-22T01:37:27.130Z,100916.84
2022-10-22T01:47:38.087Z,100898.72
2022-10-22T01:57:44.994Z,100903.91
2022-10-22T02:07:50.467Z,100909.13
2022-10-22T02:17:56.389Z,100920.44
2022-10-22T02:28:03.809Z,100923.03
2022-10-22T02:38:08.928Z,100951.50
2022-10-22T02:48:11.724Z,100975.59
2022-10-22T02:58:15.834Z,100978.22
2022-10-22T03:08:18.554Z,100990.31
2022-10-22T03:18:22.603Z,101000.69
2022-10-22T03:28:26.958Z,101016.16
2022-10-22T03:38:31.930Z,101019.56
2022-10-22T03:48:34.774Z,101030.81
2022-10-22T03:58:39.055Z,101044.56
2022-10-22T04:08:42.795Z,101035.06
2022-10-22T04:18:47.470Z,101046.28
2022-10-22T04:28:51.328Z,101033.28
2022-10-22T04:38:56.262Z,101017.69
2022-10-22T04:48:59.257Z,101005.56
2022-10-22T04:59:04.400Z,100983.91
2022-10-22T05:09:08.291Z,100981.22
2022-10-22T05:19:17.055Z,100950.81
2022-10-22T05:29:20.284Z,100930.75
2022-10-22T05:39:24.332Z,100905.69
2022-10-22T05:49:27.266Z,100908.38
2022-10-22T05:59:31.449Z,100917.06
2022-10-22T06:19:44.798Z,100937.94
2022-10-22T06:29:47.510Z,100951.69
2022-10-22T06:39:51.812Z,100964.69
2022-10-22T06:49:54.609Z,100967.34
2022-10-22T06:59:58.850Z,100991.56
2022-10-22T07:10:01.726Z,101016.63
2022-10-22T07:20:06.531Z,101012.94
2022-10-22T07:30:11.090Z,101011.97
2022-10-22T07:40:15.481Z,101016.16
2022-10-22T07:50:18.807Z,101022.81
2022-10-22T08:00:25.247Z,101026.94
2022-10-22T08:10:28.449Z,101039.72
2022-10-22T08:20:33.038Z,101041.91
2022-10-22T08:30:38.046Z,101050.16
2022-10-22T08:40:42.437Z,101052.66
2022-10-22T08:50:47.382Z,101075.16
2022-10-22T09:00:56.829Z,101085.78
2022-10-22T09:11:02.998Z,101092.44
2022-10-22T09:21:16.342Z,101108.06
2022-10-22T09:31:19.191Z,101122.09
2022-10-22T09:41:25.477Z,101128.88
2022-10-22T09:51:37.332Z,101146.66
2022-10-22T10:01:42.087Z,101156.88
2022-10-22T10:11:47.283Z,101177.50
2022-10-22T10:21:57.280Z,101186.97
2022-10-22T10:32:05.867Z,101193.63
2022-10-22T10:42:16.764Z,101196.53
2022-10-22T10:52:23.226Z,101208.03
2022-10-22T11:02:41.544Z,101204.84
2022-10-22T11:12:48.922Z,101208.34
2022-10-22T11:23:18.038Z,101208.97
2022-10-22T11:33:20.955Z,101204.66
2022-10-22T11:43:29.453Z,101175.66
2022-10-22T11:53:33.402Z,101194.94
2022-10-22T12:03:42.512Z,101188.84
2022-10-22T12:14:00.262Z,101186.97
2022-10-22T12:24:05.033Z,101208.31
2022-10-22T12:34:07.955Z,101216.78
2022-10-22T12:44:14.027Z,101206.47
2022-10-22T12:54:22.567Z,101183.63
2022-10-22T13:04:36.651Z,101195.09
2022-10-22T13:14:39.733Z,101193.97
2022-10-22T13:24:49.978Z,101184.41
2022-10-22T13:34:52.877Z,101190.25
2022-10-22T13:44:57.101Z,101179.91
2022-10-22T13:55:00.123Z,101181.81
2022-10-22T14:05:06.567Z,101197.72
2022-10-22T14:15:10.325Z,101189.28
2022-10-22T14:25:15.501Z,101200.38
2022-10-22T14:35:19.467Z,101188.97
2022-10-22T14:45:25.225Z,101203.88
2022-10-22T14:55:29.239Z,101218.09
2022-10-22T15:05:33.498Z,101235.00
2022-10-22T15:15:39.457Z,101243.53
2022-10-22T15:25:46.065Z,101246.00
2022-10-22T15:35:48.830Z,101240.59
2022-10-22T15:46:04.006Z,101244.75
2022-10-22T15:56:07.166Z,101235.84
2022-10-22T16:06:11.389Z,101229.53
2022-10-22T16:16:14.308Z,101238.00
2022-10-22T16:26:18.926Z,101249.00
2022-10-22T16:36:22.141Z,101263.38
2022-10-22T16:46:26.226Z,101250.75
2022-10-22T16:56:29.099Z,101261.53
2022-10-22T17:06:33.247Z,101271.31
2022-10-22T17:16:36.124Z,101272.38
2022-10-22T17:26:40.363Z,101288.16
2022-10-22T17:36:43.254Z,101287.44
2022-10-22T17:46:49.762Z,101287.56
2022-10-22T17:56:52.719Z,101291.09
2022-10-22T18:06:57.165Z,101289.47
2022-10-22T18:17:02.506Z,101303.34
2022-10-22T18:27:06.859Z,101308.59
2022-10-22T18:37:10.015Z,101311.22
2022-10-22T18:47:14.172Z,101329.34
2022-10-22T18:57:17.105Z,101317.31
2022-10-22T19:07:21.375Z,101302.63
2022-10-22T19:17:24.121Z,101289.69
2022-10-22T19:27:28.485Z,101289.69
2022-10-22T19:37:31.387Z,101296.59
2022-10-22T19:47:35.546Z,101291.41
2022-10-22T19:57:39.060Z,101278.47
2022-10-22T20:07:43.935Z,101288.81
2022-10-22T20:17:47.068Z,101294.91
2022-10-22T20:27:51.350Z,101308.69
2022-10-22T20:37:54.207Z,101322.50
2022-10-22T20:48:02.732Z,101313.00
2022-10-22T20:58:06.182Z,101319.91
2022-10-22T21:08:17.285Z,101313.84
2022-10-22T21:18:20.113Z,101325.09
2022-10-22T21:28:24.307Z,101322.50
2022-10-22T21:38:27.140Z,101324.22
2022-10-22T21:48:31.448Z,101338.03
2022-10-22T21:58:35.004Z,101335.44
2022-10-22T22:08:39.473Z,101326.78
2022-10-22T22:18:42.725Z,101319.03
2022-10-22T22:28:47.285Z,101301.78
2022-10-22T22:38:50.069Z,101306.97
2022-10-22T22:48:54.278Z,101297.47
2022-10-22T22:58:57.667Z,101290.56
2022-10-22T23:09:02.025Z,101281.94
2022-10-22T23:19:05.533Z,101296.66
2022-10-22T23:29:12.361Z,101282.03
2022-10-22T23:39:16.171Z,101269.09
2022-10-22T23:49:20.410Z,101250.06
2022-10-22T23:59:23.252Z,101250.97
